パリ/シャルル・ド・ゴール の空港の天気 - METARとTAF

シャルル・ド・ゴール国際空港(パリ) ( LFPG / CDG ) - フランス Paris
飛行場実況気象(Metar)
観測時間05/10 08:30 CEST (05/10 06:30 UTC)
風向・風速南西 6m/s
視程10km以上
天気現象
少しの雲 雲底高度 640m
全天の8割程度の雲 雲底高度 2010m
気温13℃
湿度77%
気圧1005hPa
METARLFPG 100630Z 23012KT 9999 FEW021 BKN066 13/09 Q1005 NOSIG
過去の天気等 Google飛行場航空写真 Wunderground天気予報

過去48時間のMETAR

飛行場予報(TAF)
発表時間: 5/10 07:00 CEST (5/10 05:00 UTC)
予報対象時間: 10日8時 CEST ~ 11日14時 CEST
風向・風速南南西 6m/s
視程10km以上
少しの雲 雲底高度 610m
全天の8割程度の雲 雲底高度 1520m
10日8時 CEST ~ 10日19時 CEST に一時的に
風向・風速南西 6m/s 瞬間風速 13m/s
10日15時 CEST ~ 10日21時 CEST に 確率 40% で一時的に
全天の4割程度の塔状積雲 雲底高度 1220m
11日10時 CEST ~ 11日12時 CEST に徐々に
少しの塔状積雲 雲底高度 1220m
TAF LFPG 100500Z 1006/1112 21012KT 9999 FEW020 BKN050 TX18/1014Z TN10/1106Z
TEMPO 1006/1017 22012G25KT
PROB40 TEMPO 1013/1019 SCT040TCU
BECMG 1108/1110 FEW040TCU